sensor_id;sensor_type;location;lat;lon;timestamp;P1;durP1;ratioP1;P2;durP2;ratioP2
34134;SDS011;20410;55.578;12.968;2023-07-13T00:01:12;5.18;;;2.10;;
34134;SDS011;20410;55.578;12.968;2023-07-13T00:03:39;4.90;;;2.22;;
34134;SDS011;20410;55.578;12.968;2023-07-13T00:06:06;5.80;;;2.22;;
34134;SDS011;20410;55.578;12.968;2023-07-13T00:08:33;6.30;;;2.28;;
34134;SDS011;20410;55.578;12.968;2023-07-13T00:11:02;6.90;;;2.00;;
34134;SDS011;20410;55.578;12.968;2023-07-13T00:13:29;5.68;;;2.20;;
34134;SDS011;20410;55.578;12.968;2023-07-13T00:15:56;9.38;;;2.30;;
34134;SDS011;20410;55.578;12.968;2023-07-13T00:18:23;6.38;;;2.08;;
34134;SDS011;20410;55.578;12.968;2023-07-13T00:20:49;5.78;;;2.10;;
34134;SDS011;20410;55.578;12.968;2023-07-13T00:23:15;7.88;;;2.28;;
34134;SDS011;20410;55.578;12.968;2023-07-13T00:25:42;7.88;;;2.00;;
34134;SDS011;20410;55.578;12.968;2023-07-13T00:28:07;6.35;;;2.28;;
34134;SDS011;20410;55.578;12.968;2023-07-13T00:30:33;6.78;;;2.10;;
34134;SDS011;20410;55.578;12.968;2023-07-13T00:32:58;6.18;;;2.15;;
34134;SDS011;20410;55.578;12.968;2023-07-13T00:35:26;6.13;;;2.20;;
34134;SDS011;20410;55.578;12.968;2023-07-13T00:37:55;8.18;;;2.17;;
34134;SDS011;20410;55.578;12.968;2023-07-13T00:40:21;8.95;;;2.10;;
34134;SDS011;20410;55.578;12.968;2023-07-13T00:42:47;7.97;;;2.55;;
34134;SDS011;20410;55.578;12.968;2023-07-13T00:47:38;5.22;;;2.10;;
34134;SDS011;20410;55.578;12.968;2023-07-13T00:50:05;7.20;;;2.45;;
34134;SDS011;20410;55.578;12.968;2023-07-13T00:52:34;7.55;;;2.45;;
34134;SDS011;20410;55.578;12.968;2023-07-13T00:55:02;8.93;;;2.30;;
34134;SDS011;20410;55.578;12.968;2023-07-13T00:57:28;5.50;;;2.03;;
34134;SDS011;20410;55.578;12.968;2023-07-13T00:59:55;8.40;;;2.58;;
34134;SDS011;20410;55.578;12.968;2023-07-13T01:02:24;6.40;;;2.40;;
34134;SDS011;20410;55.578;12.968;2023-07-13T01:04:51;9.57;;;2.58;;
34134;SDS011;20410;55.578;12.968;2023-07-13T01:07:17;7.72;;;2.25;;
34134;SDS011;20410;55.578;12.968;2023-07-13T01:09:44;10.48;;;2.80;;
34134;SDS011;20410;55.578;12.968;2023-07-13T01:12:10;8.48;;;2.53;;
34134;SDS011;20410;55.578;12.968;2023-07-13T01:14:36;9.85;;;2.60;;
34134;SDS011;20410;55.578;12.968;2023-07-13T01:17:02;11.82;;;3.20;;
34134;SDS011;20410;55.578;12.968;2023-07-13T01:19:33;5.32;;;2.17;;
34134;SDS011;20410;55.578;12.968;2023-07-13T01:22:05;13.55;;;2.67;;
34134;SDS011;20410;55.578;12.968;2023-07-13T01:24:34;4.65;;;2.17;;
34134;SDS011;20410;55.578;12.968;2023-07-13T01:27:02;3.78;;;1.83;;
34134;SDS011;20410;55.578;12.968;2023-07-13T01:29:28;4.35;;;2.10;;
34134;SDS011;20410;55.578;12.968;2023-07-13T01:31:54;7.20;;;2.47;;
34134;SDS011;20410;55.578;12.968;2023-07-13T01:34:20;7.80;;;2.83;;
34134;SDS011;20410;55.578;12.968;2023-07-13T01:36:45;6.00;;;2.33;;
34134;SDS011;20410;55.578;12.968;2023-07-13T01:39:11;9.68;;;2.60;;
34134;SDS011;20410;55.578;12.968;2023-07-13T01:41:37;8.23;;;2.55;;
34134;SDS011;20410;55.578;12.968;2023-07-13T01:44:02;9.55;;;2.78;;
34134;SDS011;20410;55.578;12.968;2023-07-13T01:46:28;7.72;;;2.80;;
34134;SDS011;20410;55.578;12.968;2023-07-13T01:48:54;9.20;;;3.10;;
34134;SDS011;20410;55.578;12.968;2023-07-13T01:51:19;7.47;;;2.60;;
34134;SDS011;20410;55.578;12.968;2023-07-13T01:53:45;9.18;;;2.53;;
34134;SDS011;20410;55.578;12.968;2023-07-13T01:56:11;7.60;;;2.67;;
34134;SDS011;20410;55.578;12.968;2023-07-13T01:58:36;8.35;;;2.50;;
34134;SDS011;20410;55.578;12.968;2023-07-13T02:01:02;5.97;;;2.33;;
34134;SDS011;20410;55.578;12.968;2023-07-13T02:03:28;7.28;;;2.55;;
34134;SDS011;20410;55.578;12.968;2023-07-13T02:05:53;10.18;;;2.83;;
34134;SDS011;20410;55.578;12.968;2023-07-13T02:08:19;10.48;;;2.92;;
34134;SDS011;20410;55.578;12.968;2023-07-13T02:10:44;7.28;;;2.47;;
34134;SDS011;20410;55.578;12.968;2023-07-13T02:13:10;8.55;;;2.60;;
34134;SDS011;20410;55.578;12.968;2023-07-13T02:15:38;9.35;;;2.67;;
34134;SDS011;20410;55.578;12.968;2023-07-13T02:18:04;7.07;;;2.30;;
34134;SDS011;20410;55.578;12.968;2023-07-13T02:20:30;7.82;;;2.55;;
34134;SDS011;20410;55.578;12.968;2023-07-13T02:22:56;6.47;;;2.85;;
34134;SDS011;20410;55.578;12.968;2023-07-13T02:25:21;7.10;;;2.75;;
34134;SDS011;20410;55.578;12.968;2023-07-13T02:27:47;5.15;;;2.47;;
34134;SDS011;20410;55.578;12.968;2023-07-13T02:30:13;6.80;;;2.70;;
34134;SDS011;20410;55.578;12.968;2023-07-13T02:32:39;8.20;;;3.05;;
34134;SDS011;20410;55.578;12.968;2023-07-13T02:35:05;8.32;;;2.75;;
34134;SDS011;20410;55.578;12.968;2023-07-13T02:37:30;8.77;;;2.45;;
34134;SDS011;20410;55.578;12.968;2023-07-13T02:39:56;7.38;;;2.90;;
34134;SDS011;20410;55.578;12.968;2023-07-13T02:42:22;9.20;;;3.13;;
34134;SDS011;20410;55.578;12.968;2023-07-13T02:44:47;6.03;;;2.47;;
34134;SDS011;20410;55.578;12.968;2023-07-13T02:47:14;8.43;;;2.90;;
34134;SDS011;20410;55.578;12.968;2023-07-13T02:49:40;5.93;;;2.33;;
34134;SDS011;20410;55.578;12.968;2023-07-13T02:52:06;7.30;;;2.83;;
34134;SDS011;20410;55.578;12.968;2023-07-13T02:54:32;4.85;;;2.17;;
34134;SDS011;20410;55.578;12.968;2023-07-13T02:56:57;8.75;;;2.60;;
34134;SDS011;20410;55.578;12.968;2023-07-13T02:59:23;5.45;;;2.25;;
34134;SDS011;20410;55.578;12.968;2023-07-13T03:01:48;10.60;;;2.90;;
34134;SDS011;20410;55.578;12.968;2023-07-13T03:04:14;9.05;;;3.10;;
34134;SDS011;20410;55.578;12.968;2023-07-13T03:06:44;9.57;;;2.70;;
34134;SDS011;20410;55.578;12.968;2023-07-13T03:09:10;6.95;;;2.75;;
34134;SDS011;20410;55.578;12.968;2023-07-13T03:11:37;10.25;;;2.88;;
34134;SDS011;20410;55.578;12.968;2023-07-13T03:14:03;10.75;;;3.17;;
34134;SDS011;20410;55.578;12.968;2023-07-13T03:16:29;6.40;;;2.72;;
34134;SDS011;20410;55.578;12.968;2023-07-13T03:18:55;7.93;;;2.67;;
34134;SDS011;20410;55.578;12.968;2023-07-13T03:21:20;7.47;;;2.72;;
34134;SDS011;20410;55.578;12.968;2023-07-13T03:23:46;7.40;;;2.45;;
34134;SDS011;20410;55.578;12.968;2023-07-13T03:26:13;7.60;;;2.90;;
34134;SDS011;20410;55.578;12.968;2023-07-13T03:28:41;5.55;;;2.20;;
34134;SDS011;20410;55.578;12.968;2023-07-13T03:31:09;7.38;;;2.20;;
34134;SDS011;20410;55.578;12.968;2023-07-13T03:33:37;5.85;;;2.72;;
34134;SDS011;20410;55.578;12.968;2023-07-13T03:36:03;7.40;;;2.78;;
34134;SDS011;20410;55.578;12.968;2023-07-13T03:38:30;6.88;;;2.42;;
34134;SDS011;20410;55.578;12.968;2023-07-13T03:40:56;8.63;;;2.42;;
34134;SDS011;20410;55.578;12.968;2023-07-13T03:43:21;7.80;;;2.45;;
34134;SDS011;20410;55.578;12.968;2023-07-13T03:45:47;6.55;;;2.55;;
34134;SDS011;20410;55.578;12.968;2023-07-13T03:48:13;6.45;;;2.67;;
34134;SDS011;20410;55.578;12.968;2023-07-13T03:50:39;7.00;;;2.78;;
34134;SDS011;20410;55.578;12.968;2023-07-13T03:53:05;7.45;;;2.55;;
34134;SDS011;20410;55.578;12.968;2023-07-13T03:55:31;7.60;;;2.88;;
34134;SDS011;20410;55.578;12.968;2023-07-13T03:58:01;8.88;;;2.65;;
34134;SDS011;20410;55.578;12.968;2023-07-13T04:00:46;11.82;;;2.65;;
34134;SDS011;20410;55.578;12.968;2023-07-13T04:03:12;7.32;;;2.35;;
34134;SDS011;20410;55.578;12.968;2023-07-13T04:05:37;8.05;;;2.80;;
34134;SDS011;20410;55.578;12.968;2023-07-13T04:08:05;7.88;;;2.88;;
34134;SDS011;20410;55.578;12.968;2023-07-13T04:10:31;7.30;;;2.45;;
34134;SDS011;20410;55.578;12.968;2023-07-13T04:12:57;9.27;;;2.80;;
34134;SDS011;20410;55.578;12.968;2023-07-13T04:15:22;6.53;;;2.47;;
34134;SDS011;20410;55.578;12.968;2023-07-13T04:17:48;9.77;;;2.95;;
34134;SDS011;20410;55.578;12.968;2023-07-13T04:20:13;9.23;;;2.80;;
34134;SDS011;20410;55.578;12.968;2023-07-13T04:22:39;7.85;;;3.00;;
34134;SDS011;20410;55.578;12.968;2023-07-13T04:25:05;6.72;;;2.70;;
34134;SDS011;20410;55.578;12.968;2023-07-13T04:27:31;6.82;;;2.50;;
34134;SDS011;20410;55.578;12.968;2023-07-13T04:29:57;4.40;;;2.30;;
34134;SDS011;20410;55.578;12.968;2023-07-13T04:32:22;6.00;;;2.50;;
34134;SDS011;20410;55.578;12.968;2023-07-13T04:34:48;9.40;;;2.60;;
34134;SDS011;20410;55.578;12.968;2023-07-13T04:37:17;7.50;;;2.65;;
34134;SDS011;20410;55.578;12.968;2023-07-13T04:39:42;7.30;;;2.67;;
34134;SDS011;20410;55.578;12.968;2023-07-13T04:42:08;10.50;;;2.85;;
34134;SDS011;20410;55.578;12.968;2023-07-13T04:44:34;8.20;;;2.72;;
34134;SDS011;20410;55.578;12.968;2023-07-13T04:46:59;7.65;;;2.63;;
34134;SDS011;20410;55.578;12.968;2023-07-13T04:49:25;6.18;;;2.50;;
34134;SDS011;20410;55.578;12.968;2023-07-13T04:51:50;9.00;;;2.83;;
34134;SDS011;20410;55.578;12.968;2023-07-13T04:54:16;7.00;;;2.60;;
34134;SDS011;20410;55.578;12.968;2023-07-13T04:56:42;7.72;;;2.47;;
34134;SDS011;20410;55.578;12.968;2023-07-13T04:59:07;11.23;;;2.70;;
34134;SDS011;20410;55.578;12.968;2023-07-13T05:01:33;7.97;;;2.42;;
34134;SDS011;20410;55.578;12.968;2023-07-13T05:03:59;8.13;;;2.42;;
34134;SDS011;20410;55.578;12.968;2023-07-13T05:06:25;7.32;;;2.67;;
34134;SDS011;20410;55.578;12.968;2023-07-13T05:08:50;11.98;;;2.90;;
34134;SDS011;20410;55.578;12.968;2023-07-13T05:11:18;9.00;;;2.30;;
34134;SDS011;20410;55.578;12.968;2023-07-13T05:13:43;6.95;;;2.50;;
34134;SDS011;20410;55.578;12.968;2023-07-13T05:16:09;6.43;;;2.20;;
34134;SDS011;20410;55.578;12.968;2023-07-13T05:18:35;6.93;;;2.30;;
34134;SDS011;20410;55.578;12.968;2023-07-13T05:21:03;6.65;;;2.30;;
34134;SDS011;20410;55.578;12.968;2023-07-13T05:23:31;7.90;;;2.78;;
34134;SDS011;20410;55.578;12.968;2023-07-13T05:25:58;6.65;;;2.40;;
34134;SDS011;20410;55.578;12.968;2023-07-13T05:28:24;7.78;;;2.40;;
34134;SDS011;20410;55.578;12.968;2023-07-13T05:30:51;9.07;;;2.42;;
34134;SDS011;20410;55.578;12.968;2023-07-13T05:33:17;7.93;;;2.60;;
34134;SDS011;20410;55.578;12.968;2023-07-13T05:35:43;7.50;;;2.60;;
34134;SDS011;20410;55.578;12.968;2023-07-13T05:38:08;7.07;;;2.20;;
34134;SDS011;20410;55.578;12.968;2023-07-13T05:40:34;7.10;;;2.72;;
34134;SDS011;20410;55.578;12.968;2023-07-13T05:42:59;5.85;;;2.35;;
34134;SDS011;20410;55.578;12.968;2023-07-13T05:45:25;7.80;;;2.53;;
34134;SDS011;20410;55.578;12.968;2023-07-13T05:47:51;7.38;;;2.60;;
34134;SDS011;20410;55.578;12.968;2023-07-13T05:50:16;6.35;;;2.33;;
34134;SDS011;20410;55.578;12.968;2023-07-13T05:52:42;7.10;;;2.47;;
34134;SDS011;20410;55.578;12.968;2023-07-13T05:55:08;7.30;;;2.35;;
34134;SDS011;20410;55.578;12.968;2023-07-13T05:57:33;8.52;;;2.53;;
34134;SDS011;20410;55.578;12.968;2023-07-13T05:59:59;6.25;;;2.38;;
34134;SDS011;20410;55.578;12.968;2023-07-13T06:02:24;7.75;;;2.53;;
34134;SDS011;20410;55.578;12.968;2023-07-13T06:04:51;7.35;;;2.60;;
34134;SDS011;20410;55.578;12.968;2023-07-13T06:07:17;5.93;;;2.25;;
34134;SDS011;20410;55.578;12.968;2023-07-13T06:09:42;6.55;;;2.42;;
34134;SDS011;20410;55.578;12.968;2023-07-13T06:12:08;5.47;;;2.10;;
34134;SDS011;20410;55.578;12.968;2023-07-13T06:14:34;5.18;;;2.20;;
34134;SDS011;20410;55.578;12.968;2023-07-13T06:17:00;7.00;;;2.33;;
34134;SDS011;20410;55.578;12.968;2023-07-13T06:19:25;5.05;;;2.08;;
34134;SDS011;20410;55.578;12.968;2023-07-13T06:21:51;5.88;;;2.38;;
34134;SDS011;20410;55.578;12.968;2023-07-13T06:24:17;5.63;;;2.20;;
34134;SDS011;20410;55.578;12.968;2023-07-13T06:26:42;7.40;;;2.22;;
34134;SDS011;20410;55.578;12.968;2023-07-13T06:29:08;7.78;;;2.08;;
34134;SDS011;20410;55.578;12.968;2023-07-13T06:31:33;6.80;;;2.10;;
34134;SDS011;20410;55.578;12.968;2023-07-13T06:33:59;9.75;;;2.50;;
34134;SDS011;20410;55.578;12.968;2023-07-13T06:36:25;6.78;;;2.40;;
34134;SDS011;20410;55.578;12.968;2023-07-13T06:38:50;6.53;;;2.60;;
34134;SDS011;20410;55.578;12.968;2023-07-13T06:41:16;5.95;;;2.55;;
34134;SDS011;20410;55.578;12.968;2023-07-13T06:43:42;6.50;;;2.50;;
34134;SDS011;20410;55.578;12.968;2023-07-13T06:46:07;5.07;;;2.25;;
34134;SDS011;20410;55.578;12.968;2023-07-13T06:48:33;6.53;;;2.22;;
34134;SDS011;20410;55.578;12.968;2023-07-13T06:50:59;7.28;;;2.40;;
34134;SDS011;20410;55.578;12.968;2023-07-13T06:53:24;6.97;;;2.45;;
34134;SDS011;20410;55.578;12.968;2023-07-13T06:55:50;6.32;;;2.17;;
34134;SDS011;20410;55.578;12.968;2023-07-13T06:58:17;6.90;;;2.30;;
34134;SDS011;20410;55.578;12.968;2023-07-13T07:00:43;9.13;;;2.60;;
34134;SDS011;20410;55.578;12.968;2023-07-13T07:03:09;5.75;;;2.40;;
34134;SDS011;20410;55.578;12.968;2023-07-13T07:05:35;5.68;;;2.20;;
34134;SDS011;20410;55.578;12.968;2023-07-13T07:08:00;6.10;;;2.40;;
34134;SDS011;20410;55.578;12.968;2023-07-13T07:10:30;5.28;;;2.35;;
34134;SDS011;20410;55.578;12.968;2023-07-13T07:12:57;8.45;;;2.40;;
34134;SDS011;20410;55.578;12.968;2023-07-13T07:15:22;7.00;;;2.55;;
34134;SDS011;20410;55.578;12.968;2023-07-13T07:17:48;8.20;;;2.38;;
34134;SDS011;20410;55.578;12.968;2023-07-13T07:20:13;7.07;;;2.40;;
34134;SDS011;20410;55.578;12.968;2023-07-13T07:22:39;9.30;;;3.08;;
34134;SDS011;20410;55.578;12.968;2023-07-13T07:25:05;6.93;;;2.35;;
34134;SDS011;20410;55.578;12.968;2023-07-13T07:27:30;6.63;;;2.13;;
34134;SDS011;20410;55.578;12.968;2023-07-13T07:29:57;7.93;;;2.40;;
34134;SDS011;20410;55.578;12.968;2023-07-13T07:32:23;5.95;;;2.30;;
34134;SDS011;20410;55.578;12.968;2023-07-13T07:34:48;4.65;;;2.10;;
34134;SDS011;20410;55.578;12.968;2023-07-13T07:37:14;7.22;;;2.42;;
34134;SDS011;20410;55.578;12.968;2023-07-13T07:39:40;6.53;;;2.33;;
34134;SDS011;20410;55.578;12.968;2023-07-13T07:42:06;5.15;;;2.10;;
34134;SDS011;20410;55.578;12.968;2023-07-13T07:44:32;4.68;;;2.10;;
34134;SDS011;20410;55.578;12.968;2023-07-13T07:46:58;4.72;;;2.22;;
34134;SDS011;20410;55.578;12.968;2023-07-13T07:49:24;5.53;;;2.20;;
34134;SDS011;20410;55.578;12.968;2023-07-13T07:51:49;5.13;;;2.13;;
34134;SDS011;20410;55.578;12.968;2023-07-13T07:54:15;4.47;;;2.17;;
34134;SDS011;20410;55.578;12.968;2023-07-13T07:56:41;7.25;;;2.17;;
34134;SDS011;20410;55.578;12.968;2023-07-13T07:59:07;5.30;;;1.90;;
34134;SDS011;20410;55.578;12.968;2023-07-13T08:01:32;4.82;;;2.10;;
34134;SDS011;20410;55.578;12.968;2023-07-13T08:03:58;5.95;;;2.10;;
34134;SDS011;20410;55.578;12.968;2023-07-13T08:06:23;5.75;;;2.42;;
34134;SDS011;20410;55.578;12.968;2023-07-13T08:08:49;4.75;;;1.92;;
34134;SDS011;20410;55.578;12.968;2023-07-13T08:11:16;8.23;;;1.92;;
34134;SDS011;20410;55.578;12.968;2023-07-13T08:13:42;5.43;;;2.47;;
34134;SDS011;20410;55.578;12.968;2023-07-13T08:16:07;3.78;;;1.83;;
34134;SDS011;20410;55.578;12.968;2023-07-13T08:18:33;3.70;;;1.90;;
34134;SDS011;20410;55.578;12.968;2023-07-13T08:21:03;4.90;;;2.05;;
34134;SDS011;20410;55.578;12.968;2023-07-13T08:23:29;5.45;;;2.50;;
34134;SDS011;20410;55.578;12.968;2023-07-13T08:25:55;7.53;;;2.45;;
34134;SDS011;20410;55.578;12.968;2023-07-13T08:28:21;4.03;;;1.77;;
34134;SDS011;20410;55.578;12.968;2023-07-13T08:30:47;4.20;;;1.92;;
34134;SDS011;20410;55.578;12.968;2023-07-13T08:33:19;4.57;;;1.88;;
34134;SDS011;20410;55.578;12.968;2023-07-13T08:35:46;5.90;;;2.20;;
34134;SDS011;20410;55.578;12.968;2023-07-13T08:38:12;6.60;;;2.38;;
34134;SDS011;20410;55.578;12.968;2023-07-13T08:40:39;6.68;;;2.65;;
34134;SDS011;20410;55.578;12.968;2023-07-13T08:43:06;5.07;;;2.25;;
34134;SDS011;20410;55.578;12.968;2023-07-13T08:46:13;7.43;;;2.30;;
34134;SDS011;20410;55.578;12.968;2023-07-13T08:49:01;11.18;;;2.67;;
34134;SDS011;20410;55.578;12.968;2023-07-13T08:54:43;9.65;;;2.53;;
34134;SDS011;20410;55.578;12.968;2023-07-13T08:57:19;9.00;;;2.50;;
34134;SDS011;20410;55.578;12.968;2023-07-13T08:59:49;8.05;;;2.88;;
34134;SDS011;20410;55.578;12.968;2023-07-13T09:02:22;6.75;;;2.75;;
34134;SDS011;20410;55.578;12.968;2023-07-13T09:04:59;6.18;;;2.30;;
34134;SDS011;20410;55.578;12.968;2023-07-13T09:15:23;6.82;;;1.77;;
34134;SDS011;20410;55.578;12.968;2023-07-13T09:17:52;7.43;;;2.08;;
34134;SDS011;20410;55.578;12.968;2023-07-13T09:20:25;7.50;;;2.25;;
34134;SDS011;20410;55.578;12.968;2023-07-13T09:23:05;10.90;;;3.20;;
34134;SDS011;20410;55.578;12.968;2023-07-13T09:25:36;10.80;;;3.00;;
34134;SDS011;20410;55.578;12.968;2023-07-13T09:28:26;8.75;;;2.60;;
34134;SDS011;20410;55.578;12.968;2023-07-13T09:30:58;15.50;;;3.30;;
34134;SDS011;20410;55.578;12.968;2023-07-13T09:33:25;10.77;;;2.75;;
34134;SDS011;20410;55.578;12.968;2023-07-13T09:35:54;6.05;;;2.33;;
34134;SDS011;20410;55.578;12.968;2023-07-13T09:38:22;5.85;;;2.30;;
34134;SDS011;20410;55.578;12.968;2023-07-13T09:43:20;7.50;;;2.70;;
34134;SDS011;20410;55.578;12.968;2023-07-13T09:45:47;5.30;;;2.00;;
34134;SDS011;20410;55.578;12.968;2023-07-13T09:48:13;5.88;;;2.13;;
34134;SDS011;20410;55.578;12.968;2023-07-13T09:50:41;4.55;;;1.98;;
34134;SDS011;20410;55.578;12.968;2023-07-13T09:53:14;5.72;;;2.03;;
34134;SDS011;20410;55.578;12.968;2023-07-13T09:55:43;6.57;;;2.10;;
34134;SDS011;20410;55.578;12.968;2023-07-13T09:58:14;5.97;;;2.00;;
34134;SDS011;20410;55.578;12.968;2023-07-13T10:00:53;4.05;;;2.20;;
34134;SDS011;20410;55.578;12.968;2023-07-13T10:03:28;4.43;;;2.08;;
34134;SDS011;20410;55.578;12.968;2023-07-13T10:06:01;5.10;;;2.17;;
34134;SDS011;20410;55.578;12.968;2023-07-13T10:08:38;6.03;;;2.33;;
34134;SDS011;20410;55.578;12.968;2023-07-13T10:13:36;7.28;;;3.85;;
34134;SDS011;20410;55.578;12.968;2023-07-13T10:16:06;6.25;;;2.10;;
34134;SDS011;20410;55.578;12.968;2023-07-13T10:18:38;6.63;;;2.20;;
34134;SDS011;20410;55.578;12.968;2023-07-13T10:21:19;7.13;;;2.60;;
34134;SDS011;20410;55.578;12.968;2023-07-13T10:23:48;6.82;;;2.33;;
34134;SDS011;20410;55.578;12.968;2023-07-13T10:26:29;6.18;;;2.28;;
34134;SDS011;20410;55.578;12.968;2023-07-13T10:28:57;10.52;;;2.80;;
34134;SDS011;20410;55.578;12.968;2023-07-13T10:31:29;8.07;;;2.70;;
34134;SDS011;20410;55.578;12.968;2023-07-13T10:33:55;7.68;;;2.50;;
34134;SDS011;20410;55.578;12.968;2023-07-13T10:39:19;7.55;;;2.80;;
34134;SDS011;20410;55.578;12.968;2023-07-13T10:41:57;8.00;;;2.67;;
34134;SDS011;20410;55.578;12.968;2023-07-13T10:44:26;8.50;;;2.58;;
34134;SDS011;20410;55.578;12.968;2023-07-13T10:46:59;9.18;;;2.72;;
34134;SDS011;20410;55.578;12.968;2023-07-13T10:49:27;7.57;;;2.38;;
34134;SDS011;20410;55.578;12.968;2023-07-13T10:51:54;6.25;;;2.60;;
34134;SDS011;20410;55.578;12.968;2023-07-13T10:54:21;6.82;;;3.28;;
34134;SDS011;20410;55.578;12.968;2023-07-13T10:59:42;6.50;;;2.13;;
34134;SDS011;20410;55.578;12.968;2023-07-13T11:02:25;6.05;;;3.50;;
34134;SDS011;20410;55.578;12.968;2023-07-13T11:04:53;5.80;;;2.78;;
34134;SDS011;20410;55.578;12.968;2023-07-13T11:07:22;8.25;;;2.47;;
34134;SDS011;20410;55.578;12.968;2023-07-13T11:09:57;5.05;;;2.17;;
34134;SDS011;20410;55.578;12.968;2023-07-13T11:22:52;4.80;;;1.45;;
34134;SDS011;20410;55.578;12.968;2023-07-13T11:25:34;2.28;;;1.20;;
34134;SDS011;20410;55.578;12.968;2023-07-13T11:28:07;2.53;;;1.10;;
34134;SDS011;20410;55.578;12.968;2023-07-13T11:33:20;1.52;;;0.90;;
34134;SDS011;20410;55.578;12.968;2023-07-13T11:36:17;2.17;;;1.25;;
34134;SDS011;20410;55.578;12.968;2023-07-13T11:41:23;2.13;;;1.00;;
34134;SDS011;20410;55.578;12.968;2023-07-13T11:43:54;1.50;;;1.15;;
34134;SDS011;20410;55.578;12.968;2023-07-13T11:46:28;3.00;;;1.27;;
34134;SDS011;20410;55.578;12.968;2023-07-13T11:48:54;2.45;;;1.33;;
34134;SDS011;20410;55.578;12.968;2023-07-13T11:51:29;1.92;;;1.10;;
34134;SDS011;20410;55.578;12.968;2023-07-13T11:54:00;2.83;;;1.20;;
34134;SDS011;20410;55.578;12.968;2023-07-13T11:56:29;2.58;;;1.38;;
34134;SDS011;20410;55.578;12.968;2023-07-13T11:58:57;2.28;;;1.17;;
34134;SDS011;20410;55.578;12.968;2023-07-13T12:01:29;2.67;;;1.20;;
34134;SDS011;20410;55.578;12.968;2023-07-13T12:03:58;3.22;;;2.63;;
34134;SDS011;20410;55.578;12.968;2023-07-13T12:06:32;3.33;;;1.45;;
34134;SDS011;20410;55.578;12.968;2023-07-13T12:09:09;2.40;;;1.30;;
34134;SDS011;20410;55.578;12.968;2023-07-13T12:11:39;2.45;;;1.38;;
34134;SDS011;20410;55.578;12.968;2023-07-13T12:14:10;2.38;;;1.42;;
34134;SDS011;20410;55.578;12.968;2023-07-13T12:16:40;1.98;;;1.10;;
34134;SDS011;20410;55.578;12.968;2023-07-13T12:19:09;2.45;;;1.30;;
34134;SDS011;20410;55.578;12.968;2023-07-13T12:21:44;1.42;;;1.10;;
34134;SDS011;20410;55.578;12.968;2023-07-13T12:24:16;2.33;;;1.30;;
34134;SDS011;20410;55.578;12.968;2023-07-13T12:26:48;5.30;;;1.70;;
34134;SDS011;20410;55.578;12.968;2023-07-13T12:29:17;3.08;;;1.30;;
34134;SDS011;20410;55.578;12.968;2023-07-13T12:31:44;5.10;;;3.45;;
34134;SDS011;20410;55.578;12.968;2023-07-13T12:34:12;3.13;;;1.15;;
34134;SDS011;20410;55.578;12.968;2023-07-13T12:39:15;1.63;;;1.30;;
34134;SDS011;20410;55.578;12.968;2023-07-13T12:41:46;3.67;;;1.48;;
34134;SDS011;20410;55.578;12.968;2023-07-13T12:44:15;2.03;;;1.20;;
34134;SDS011;20410;55.578;12.968;2023-07-13T12:46:52;2.10;;;1.45;;
34134;SDS011;20410;55.578;12.968;2023-07-13T12:49:23;2.00;;;1.38;;
34134;SDS011;20410;55.578;12.968;2023-07-13T12:51:55;2.78;;;1.27;;
34134;SDS011;20410;55.578;12.968;2023-07-13T12:54:24;3.70;;;1.70;;
34134;SDS011;20410;55.578;12.968;2023-07-13T12:56:50;2.10;;;1.38;;
34134;SDS011;20410;55.578;12.968;2023-07-13T12:59:18;3.15;;;1.55;;
34134;SDS011;20410;55.578;12.968;2023-07-13T13:01:46;2.90;;;1.80;;
34134;SDS011;20410;55.578;12.968;2023-07-13T13:04:12;3.17;;;1.70;;
34134;SDS011;20410;55.578;12.968;2023-07-13T13:06:38;2.88;;;1.50;;
34134;SDS011;20410;55.578;12.968;2023-07-13T13:09:06;3.42;;;1.60;;
34134;SDS011;20410;55.578;12.968;2023-07-13T13:11:36;3.30;;;1.60;;
34134;SDS011;20410;55.578;12.968;2023-07-13T13:14:02;3.20;;;1.60;;
34134;SDS011;20410;55.578;12.968;2023-07-13T13:16:30;3.13;;;1.45;;
34134;SDS011;20410;55.578;12.968;2023-07-13T13:18:57;2.85;;;1.60;;
34134;SDS011;20410;55.578;12.968;2023-07-13T13:21:27;4.03;;;1.77;;
34134;SDS011;20410;55.578;12.968;2023-07-13T13:23:53;2.97;;;1.50;;
34134;SDS011;20410;55.578;12.968;2023-07-13T13:26:19;3.53;;;1.75;;
34134;SDS011;20410;55.578;12.968;2023-07-13T13:28:46;4.75;;;1.67;;
34134;SDS011;20410;55.578;12.968;2023-07-13T13:31:15;3.92;;;1.80;;
34134;SDS011;20410;55.578;12.968;2023-07-13T13:33:41;5.53;;;1.80;;
34134;SDS011;20410;55.578;12.968;2023-07-13T13:36:14;4.13;;;1.60;;
34134;SDS011;20410;55.578;12.968;2023-07-13T13:38:41;3.40;;;1.63;;
34134;SDS011;20410;55.578;12.968;2023-07-13T13:41:09;3.00;;;1.48;;
34134;SDS011;20410;55.578;12.968;2023-07-13T13:43:35;3.42;;;1.60;;
34134;SDS011;20410;55.578;12.968;2023-07-13T13:46:01;2.88;;;1.50;;
34134;SDS011;20410;55.578;12.968;2023-07-13T13:48:35;1.83;;;1.20;;
34134;SDS011;20410;55.578;12.968;2023-07-13T13:51:03;3.35;;;1.42;;
34134;SDS011;20410;55.578;12.968;2023-07-13T13:53:40;4.70;;;1.58;;
34134;SDS011;20410;55.578;12.968;2023-07-13T13:56:06;3.30;;;1.40;;
34134;SDS011;20410;55.578;12.968;2023-07-13T13:58:32;5.45;;;2.58;;
34134;SDS011;20410;55.578;12.968;2023-07-13T14:00:58;5.15;;;2.17;;
34134;SDS011;20410;55.578;12.968;2023-07-13T14:03:23;2.80;;;1.40;;
34134;SDS011;20410;55.578;12.968;2023-07-13T14:05:49;5.60;;;1.70;;
34134;SDS011;20410;55.578;12.968;2023-07-13T14:08:16;5.18;;;1.98;;
34134;SDS011;20410;55.578;12.968;2023-07-13T14:10:44;4.28;;;1.20;;
34134;SDS011;20410;55.578;12.968;2023-07-13T14:13:21;1.40;;;1.10;;
34134;SDS011;20410;55.578;12.968;2023-07-13T14:15:51;2.35;;;1.10;;
34134;SDS011;20410;55.578;12.968;2023-07-13T14:18:18;1.88;;;1.10;;
34134;SDS011;20410;55.578;12.968;2023-07-13T14:20:47;3.28;;;1.33;;
34134;SDS011;20410;55.578;12.968;2023-07-13T14:23:14;2.72;;;1.35;;
34134;SDS011;20410;55.578;12.968;2023-07-13T14:25:41;2.60;;;1.20;;
34134;SDS011;20410;55.578;12.968;2023-07-13T14:28:15;2.05;;;1.33;;
34134;SDS011;20410;55.578;12.968;2023-07-13T14:30:52;1.98;;;1.30;;
34134;SDS011;20410;55.578;12.968;2023-07-13T14:33:19;1.67;;;1.20;;
34134;SDS011;20410;55.578;12.968;2023-07-13T14:35:45;2.15;;;1.50;;
34134;SDS011;20410;55.578;12.968;2023-07-13T14:38:12;4.55;;;1.50;;
34134;SDS011;20410;55.578;12.968;2023-07-13T14:40:41;4.05;;;1.63;;
34134;SDS011;20410;55.578;12.968;2023-07-13T14:43:10;2.38;;;1.48;;
34134;SDS011;20410;55.578;12.968;2023-07-13T14:45:38;3.20;;;1.40;;
34134;SDS011;20410;55.578;12.968;2023-07-13T14:48:12;2.47;;;1.50;;
34134;SDS011;20410;55.578;12.968;2023-07-13T14:50:43;4.72;;;1.70;;
34134;SDS011;20410;55.578;12.968;2023-07-13T14:53:11;2.90;;;1.40;;
34134;SDS011;20410;55.578;12.968;2023-07-13T14:55:37;3.70;;;1.40;;
34134;SDS011;20410;55.578;12.968;2023-07-13T14:58:03;3.58;;;1.40;;
34134;SDS011;20410;55.578;12.968;2023-07-13T15:00:29;2.92;;;1.60;;
34134;SDS011;20410;55.578;12.968;2023-07-13T15:02:56;3.10;;;1.60;;
34134;SDS011;20410;55.578;12.968;2023-07-13T15:05:27;2.55;;;1.30;;
34134;SDS011;20410;55.578;12.968;2023-07-13T15:07:56;3.38;;;1.40;;
34134;SDS011;20410;55.578;12.968;2023-07-13T15:10:24;2.63;;;1.20;;
34134;SDS011;20410;55.578;12.968;2023-07-13T15:12:52;3.17;;;1.60;;
34134;SDS011;20410;55.578;12.968;2023-07-13T15:15:18;2.30;;;1.33;;
34134;SDS011;20410;55.578;12.968;2023-07-13T15:17:45;3.00;;;1.40;;
34134;SDS011;20410;55.578;12.968;2023-07-13T15:22:46;3.13;;;1.50;;